Time;durP1;ratioP1;P1;durP2;ratioP2;P2;SDS_P1;SDS_P2;PMS_P1;PMS_P2;Temp;Humidity;BMP_temperature;BMP_pressure;BME280_temperature;BME280_humidity;BME280_pressure;Samples;Min_cycle;Max_cycle;Signal;HPM_P1;HPM_P2
2022/12/02 00:00:04;;;;;;;17.40;5.70;;;;;;;-2.63;64.88;100836.45;106466;1305;138180;-63
2022/12/02 00:02:32;;;;;;;11.40;5.80;;;;;;;-2.64;64.91;100836.00;106611;1306;23442;-63
2022/12/02 00:05:14;;;;;;;12.20;5.90;;;;;;;-2.63;64.84;100838.05;106500;1305;138646;-63
2022/12/02 00:07:41;;;;;;;11.90;5.00;;;;;;;-2.63;64.57;100836.45;106518;1306;22372;-63
2022/12/02 00:10:29;;;;;;;14.00;5.90;;;;;;;-2.64;64.80;100838.33;106477;1305;22395;-63
2022/12/02 00:13:19;;;;;;;12.10;6.60;;;;;;;-2.64;65.03;100839.23;106540;1305;22148;-63
2022/12/02 00:15:47;;;;;;;13.00;6.00;;;;;;;-2.65;64.75;100836.81;106596;1296;22146;-63
2022/12/02 00:18:14;;;;;;;16.50;6.60;;;;;;;-2.65;64.97;100836.08;106425;1306;137290;-63
2022/12/02 00:20:42;;;;;;;15.80;6.60;;;;;;;-2.65;65.10;100834.31;106553;1306;22212;-63
2022/12/02 00:23:08;;;;;;;12.90;5.80;;;;;;;-2.65;64.96;100836.22;106434;1305;137864;-63
2022/12/02 00:25:35;;;;;;;10.90;6.20;;;;;;;-2.66;64.56;100832.77;106587;1305;22994;-63
2022/12/02 00:28:02;;;;;;;10.70;5.40;;;;;;;-2.66;64.76;100833.02;106573;1305;22155;-63
2022/12/02 00:30:29;;;;;;;;;;;;;;;-2.68;64.72;100830.10;106418;1290;137904;-63
2022/12/02 00:32:55;;;;;;;13.80;6.00;;;;;;;-2.66;64.83;100832.29;106541;1305;23007;-63
2022/12/02 00:35:23;;;;;;;10.60;5.20;;;;;;;-2.65;64.97;100825.80;106609;1298;137718;-63
2022/12/02 00:37:50;;;;;;;11.70;6.90;;;;;;;-2.66;64.92;100820.19;106615;1306;22124;-63
2022/12/02 00:40:17;;;;;;;10.90;5.40;;;;;;;-2.66;64.85;100823.70;106534;1306;137538;-63
2022/12/02 00:42:44;;;;;;;;;;;;;;;-2.64;64.80;100821.79;106615;1305;23225;-63
2022/12/02 00:47:56;;;;;;;12.60;6.30;;;;;;;-2.66;64.49;100818.73;106462;1306;139024;-63
2022/12/02 00:50:23;;;;;;;;;;;;;;;-2.66;64.74;100819.42;106588;1298;22347;-63
2022/12/02 00:52:51;;;;;;;10.40;5.10;;;;;;;-2.65;65.05;100817.27;106476;1307;126577;-63
2022/12/02 00:55:17;;;;;;;11.40;5.90;;;;;;;-2.65;64.76;100819.56;106582;1305;22130;-63
2022/12/02 00:57:44;;;;;;;;;;;;;;;-2.66;64.71;100817.15;106559;1291;22334;-63
2022/12/02 01:00:11;;;;;;;12.00;5.50;;;;;;;-2.67;64.81;100817.91;106491;1306;124591;-63
2022/12/02 01:02:38;;;;;;;10.60;4.70;;;;;;;-2.66;64.79;100819.15;106584;1290;22122;-63
2022/12/02 01:05:05;;;;;;;;;;;;;;;-2.65;64.91;100820.80;106491;1306;138836;-63
2022/12/02 01:07:32;;;;;;;12.00;6.10;;;;;;;-2.65;65.06;100820.21;106615;1306;22217;-64
2022/12/02 01:09:59;;;;;;;;;;;;;;;-2.65;64.81;100819.73;106653;1298;23241;-62
2022/12/02 01:12:25;;;;;;;12.30;6.10;;;;;;;-2.64;64.83;100822.15;106555;1306;123765;-62
2022/12/02 01:14:52;;;;;;;13.10;4.90;;;;;;;-2.65;64.94;100818.34;106717;1303;22230;-62
2022/12/02 01:17:19;;;;;;;16.80;6.20;;;;;;;-2.66;64.77;100816.95;105884;1295;138275;-62
2022/12/02 01:19:46;;;;;;;14.00;6.60;;;;;;;-2.66;64.92;100814.96;102387;1311;22464;-61
2022/12/02 01:22:12;;;;;;;10.20;5.10;;;;;;;-2.66;64.95;100809.85;102402;1313;22489;-61
2022/12/02 01:24:39;;;;;;;;;;;;;;;-2.66;64.94;100810.55;102429;1295;23832;-61
2022/12/02 01:27:06;;;;;;;11.20;5.30;;;;;;;-2.66;65.09;100806.15;102532;1313;24040;-61
2022/12/02 01:29:33;;;;;;;12.80;5.10;;;;;;;-2.68;64.90;100802.58;102364;1298;137525;-61
2022/12/02 01:32:00;;;;;;;12.10;6.10;;;;;;;-2.69;65.01;100804.56;102490;1313;25458;-61
2022/12/02 01:34:27;;;;;;;;;;;;;;;-2.73;65.12;100798.19;102382;1294;139702;-61
2022/12/02 01:36:54;;;;;;;13.60;7.40;;;;;;;-2.70;65.31;100802.60;102357;1294;25338;-61
2022/12/02 01:39:21;;;;;;;13.10;6.60;;;;;;;-2.72;65.55;100799.54;102341;1294;25480;-62
2022/12/02 01:41:47;;;;;;;12.70;6.50;;;;;;;-2.73;65.83;100798.08;102323;1289;139508;-61
2022/12/02 01:44:14;;;;;;;14.10;7.00;;;;;;;-2.75;65.47;100797.14;102411;1304;26006;-61
2022/12/02 01:46:42;;;;;;;10.90;5.90;;;;;;;-2.77;65.56;100795.96;102315;1305;139181;-61
2022/12/02 01:49:08;;;;;;;12.20;6.10;;;;;;;-2.79;65.78;100795.77;102300;1299;23909;-61
2022/12/02 01:51:35;;;;;;;14.30;7.20;;;;;;;-2.79;66.02;100796.19;102441;1313;23516;-61
2022/12/02 01:54:03;;;;;;;15.70;6.70;;;;;;;-2.80;66.21;100796.95;106267;1302;137421;-63
2022/12/02 01:56:30;;;;;;;15.90;6.80;;;;;;;-2.80;66.08;100793.80;104291;1305;22538;-62
2022/12/02 01:58:57;;;;;;;;;;;;;;;-2.81;65.87;100792.26;102098;1295;137934;-62
2022/12/02 02:01:29;;;;;;;13.00;6.50;;;;;;;-2.81;66.15;100792.95;102400;1312;22593;-61
2022/12/02 02:03:56;;;;;;;11.60;5.10;;;;;;;-2.82;66.22;100792.45;106616;1296;23820;-63
2022/12/02 02:06:23;;;;;;;13.30;6.20;;;;;;;-2.80;66.49;100795.34;106511;1298;137906;-63
2022/12/02 02:08:51;;;;;;;13.50;6.10;;;;;;;-2.78;66.37;100791.80;106415;1306;22280;-63
2022/12/02 02:11:18;;;;;;;12.80;6.00;;;;;;;-2.77;66.37;100791.81;106395;1309;138962;-62
2022/12/02 02:13:45;;;;;;;16.50;6.40;;;;;;;-2.74;66.52;100795.71;106584;1305;22230;-63
2022/12/02 02:16:13;;;;;;;15.60;7.70;;;;;;;-2.72;66.68;100793.52;106509;1300;22107;-62
2022/12/02 02:18:40;;;;;;;14.70;6.90;;;;;;;-2.70;66.46;100794.58;106730;1305;22093;-63
2022/12/02 02:21:12;;;;;;;17.10;8.40;;;;;;;-2.69;66.22;100798.05;106595;1297;22963;-63
2022/12/02 02:23:40;;;;;;;13.20;7.30;;;;;;;-2.70;66.22;100799.55;106480;1305;138455;-63
2022/12/02 02:26:07;;;;;;;;;;;;;;;-2.71;66.33;100799.25;106624;1303;22348;-62
2022/12/02 02:28:33;;;;;;;14.00;6.90;;;;;;;-2.72;66.45;100798.83;106596;1301;125179;-62
2022/12/02 02:31:01;;;;;;;13.70;6.80;;;;;;;-2.73;66.41;100798.29;106577;1291;22153;-63
2022/12/02 02:33:33;;;;;;;11.90;6.80;;;;;;;-2.74;66.43;100802.61;106623;1297;22129;-62
2022/12/02 02:36:00;;;;;;;19.20;7.90;;;;;;;-2.75;66.67;100801.14;106486;1298;137530;-62
2022/12/02 02:38:27;;;;;;;;;;;;;;;-2.76;66.61;100799.81;106566;1309;22448;-63
2022/12/02 02:40:54;;;;;;;14.20;5.80;;;;;;;-2.77;66.92;100799.30;106518;1306;124256;-63
2022/12/02 02:43:23;;;;;;;9.90;5.50;;;;;;;-2.77;67.04;100797.59;106488;1309;22103;-63
2022/12/02 02:45:50;;;;;;;13.20;6.70;;;;;;;-2.78;67.12;100796.05;106469;1308;22134;-63
2022/12/02 02:48:17;;;;;;;10.80;6.00;;;;;;;-2.78;67.18;100795.82;106481;1305;137989;-64
2022/12/02 02:50:44;;;;;;;;;;;;;;;-2.79;67.03;100791.14;106645;1305;22419;-63
2022/12/02 02:53:12;;;;;;;12.90;6.80;;;;;;;-2.79;67.24;100795.94;106492;1308;123939;-62
2022/12/02 02:55:39;;;;;;;10.40;5.60;;;;;;;-2.80;67.04;100795.94;105449;1308;22483;-62
2022/12/02 02:58:16;;;;;;;;;;;;;;;-2.82;67.07;100795.36;101946;1294;23953;-62
2022/12/02 03:01:20;;;;;;;11.20;5.20;;;;;;;-2.82;67.24;100793.57;102258;1297;22500;-62
2022/12/02 03:03:50;;;;;;;10.00;5.00;;;;;;;-2.83;67.46;100789.92;105394;1321;23018;-63
2022/12/02 03:06:18;;;;;;;12.70;5.90;;;;;;;-2.83;67.49;100796.32;105763;1311;137926;-63
2022/12/02 03:08:46;;;;;;;10.90;5.20;;;;;;;-2.83;67.47;100797.61;105760;1314;22241;-61
2022/12/02 03:11:13;;;;;;;13.10;5.70;;;;;;;-2.84;67.57;100796.73;105754;1311;140001;-62
2022/12/02 03:13:39;;;;;;;;;;;;;;;-2.88;67.66;100788.27;105875;1307;23637;-62
2022/12/02 03:16:07;;;;;;;9.40;4.80;;;;;;;-2.83;67.66;100795.39;106001;1311;22168;-62
2022/12/02 03:18:34;;;;;;;9.60;4.00;;;;;;;-2.81;67.84;100793.02;105614;1306;139561;-63
2022/12/02 03:21:01;;;;;;;10.10;5.70;;;;;;;-2.80;68.13;100794.05;105850;1311;22360;-63
2022/12/02 03:23:29;;;;;;;;;;;;;;;-2.78;68.00;100794.84;105792;1313;140212;-62
2022/12/02 03:25:55;;;;;;;6.40;4.10;;;;;;;-2.76;68.17;100794.59;104523;1313;22736;-62
2022/12/02 03:28:22;;;;;;;10.10;5.20;;;;;;;-2.75;68.16;100796.10;101246;1300;138990;-63
2022/12/02 03:30:49;;;;;;;13.40;6.20;;;;;;;-2.73;68.17;100792.48;101389;1321;22534;-61
2022/12/02 03:33:17;;;;;;;14.20;6.00;;;;;;;-2.72;68.03;100794.09;101464;1305;22626;-61
2022/12/02 03:35:43;;;;;;;15.50;6.90;;;;;;;-2.73;68.19;100793.48;101200;1306;139156;-62
2022/12/02 03:38:10;;;;;;;12.40;6.90;;;;;;;-2.74;68.22;100791.04;101327;1313;22501;-61
2022/12/02 03:40:37;;;;;;;11.20;6.20;;;;;;;-2.76;68.22;100790.86;101513;1313;138700;-61
2022/12/02 03:43:04;;;;;;;10.10;5.80;;;;;;;-2.78;68.19;100794.45;102282;1313;26003;-62
2022/12/02 03:45:31;;;;;;;12.80;6.00;;;;;;;-2.80;68.24;100793.97;102326;1295;22592;-61
2022/12/02 03:47:58;;;;;;;10.10;5.30;;;;;;;-2.83;68.35;100794.39;102129;1299;139560;-62
2022/12/02 03:50:25;;;;;;;12.80;6.50;;;;;;;-2.86;68.50;100792.81;102281;1305;22553;-62
2022/12/02 03:52:52;;;;;;;18.40;7.10;;;;;;;-2.86;68.57;100790.19;101996;1298;139535;-61
2022/12/02 03:55:19;;;;;;;16.40;7.10;;;;;;;-2.88;68.50;100791.05;102481;1298;22497;-62
2022/12/02 03:57:46;;;;;;;14.20;6.90;;;;;;;-2.90;68.53;100787.55;102456;1313;24309;-62
2022/12/02 04:00:13;;;;;;;;;;;;;;;-2.94;68.69;100787.51;102328;1289;142115;-62
2022/12/02 04:02:42;;;;;;;12.30;5.50;;;;;;;-2.97;68.73;100787.08;106362;1297;23181;-63
2022/12/02 04:05:09;;;;;;;11.00;6.10;;;;;;;-3.00;68.59;100783.96;106482;1306;138363;-63
2022/12/02 04:07:36;;;;;;;11.80;5.50;;;;;;;-3.00;68.81;100785.28;106699;1302;22171;-63
2022/12/02 04:10:03;;;;;;;;;;;;;;;-3.00;68.89;100786.17;106652;1305;22343;-62
2022/12/02 04:12:29;;;;;;;10.30;6.00;;;;;;;-2.99;68.96;100787.87;106495;1296;125631;-63
2022/12/02 04:14:56;;;;;;;;;;;;;;;-2.99;69.17;100781.77;106634;1297;22390;-63
2022/12/02 04:17:23;;;;;;;12.60;6.40;;;;;;;-2.97;69.17;100784.48;106489;1304;124257;-62
2022/12/02 04:19:50;;;;;;;;;;;;;;;-2.98;69.13;100781.33;106677;1305;22352;-62
2022/12/02 04:22:16;;;;;;;13.60;6.40;;;;;;;-2.96;69.16;100781.89;106565;1306;124579;-61
2022/12/02 04:24:43;;;;;;;14.20;7.10;;;;;;;-2.97;69.26;100786.05;106571;1306;23374;-62
2022/12/02 04:27:10;;;;;;;14.40;6.50;;;;;;;-2.98;69.29;100785.43;106598;1302;22115;-62
2022/12/02 04:29:36;;;;;;;16.80;6.90;;;;;;;-2.99;69.30;100786.41;106536;1306;139138;-62
2022/12/02 04:32:03;;;;;;;16.60;8.20;;;;;;;-2.99;69.24;100787.50;106580;1305;22204;-62
2022/12/02 04:34:30;;;;;;;14.20;7.40;;;;;;;-3.02;69.13;100786.63;106467;1299;138515;-63
2022/12/02 04:36:57;;;;;;;23.30;8.70;;;;;;;-3.03;69.41;100786.27;106712;1301;22202;-63
2022/12/02 04:39:24;;;;;;;33.30;13.30;;;;;;;-3.04;69.58;100784.20;106602;1306;22115;-63
2022/12/02 04:41:50;;;;;;;28.60;11.10;;;;;;;-3.04;69.60;100781.38;106426;1294;138538;-63
2022/12/02 04:44:17;;;;;;;19.30;7.50;;;;;;;-3.05;69.70;100781.63;106591;1302;22996;-63
2022/12/02 04:46:44;;;;;;;12.50;6.90;;;;;;;-3.04;69.74;100784.94;106568;1306;138166;-63
2022/12/02 04:49:11;;;;;;;;;;;;;;;-3.05;69.71;100781.85;106714;1306;23029;-63
2022/12/02 04:51:37;;;;;;;9.30;5.30;;;;;;;-3.05;69.58;100784.71;106608;1304;22309;-63
2022/12/02 04:54:04;;;;;;;8.80;4.80;;;;;;;-3.06;69.82;100784.59;106608;1306;139176;-63
2022/12/02 04:56:31;;;;;;;14.60;6.60;;;;;;;-3.06;69.64;100785.30;106622;1306;22890;-63
2022/12/02 04:58:58;;;;;;;10.50;5.60;;;;;;;-3.05;69.64;100785.89;106560;1306;140434;-63
2022/12/02 05:01:24;;;;;;;10.10;5.00;;;;;;;-3.04;69.79;100786.23;106558;1301;22162;-63
2022/12/02 05:03:51;;;;;;;16.90;7.00;;;;;;;-3.10;69.91;100773.92;106691;1306;22125;-63
2022/12/02 05:06:18;;;;;;;;;;;;;;;-3.02;69.86;100782.05;106517;1306;138420;-63
2022/12/02 05:08:44;;;;;;;11.00;5.50;;;;;;;-3.01;69.83;100780.54;106698;1298;22899;-63
2022/12/02 05:11:11;;;;;;;16.40;6.40;;;;;;;-3.00;69.81;100783.13;106598;1306;137247;-63
2022/12/02 05:13:38;;;;;;;14.60;6.00;;;;;;;-3.01;69.73;100781.80;106634;1306;22164;-63
2022/12/02 05:16:05;;;;;;;16.90;6.30;;;;;;;-3.03;69.56;100784.60;106614;1298;22250;-63
2022/12/02 05:18:32;;;;;;;12.10;6.20;;;;;;;-3.03;69.61;100784.34;106592;1294;138946;-64
2022/12/02 05:20:59;;;;;;;12.50;6.00;;;;;;;-3.04;69.67;100784.44;106539;1305;22197;-63
2022/12/02 05:23:26;;;;;;;10.70;5.10;;;;;;;-3.05;69.75;100788.39;106595;1298;139184;-63
2022/12/02 05:25:52;;;;;;;13.30;6.00;;;;;;;-3.06;70.09;100790.94;106629;1306;23365;-63
2022/12/02 05:28:19;;;;;;;14.20;6.40;;;;;;;-3.06;69.82;100791.67;106596;1306;138823;-63
2022/12/02 05:30:46;;;;;;;13.40;5.70;;;;;;;-3.08;69.90;100792.36;106574;1305;22160;-62
2022/12/02 05:33:12;;;;;;;15.60;6.10;;;;;;;-3.09;69.83;100794.61;106665;1302;22173;-62
2022/12/02 05:35:39;;;;;;;10.60;5.20;;;;;;;-3.09;69.86;100795.55;106497;1306;138305;-62
2022/12/02 05:38:06;;;;;;;13.00;6.00;;;;;;;-3.09;70.05;100798.90;106598;1306;22265;-62
2022/12/02 05:40:33;;;;;;;11.50;6.00;;;;;;;-3.09;70.05;100799.80;106455;1305;140965;-61
2022/12/02 05:43:05;;;;;;;13.50;5.50;;;;;;;-3.07;70.21;100800.52;106747;1303;22907;-62
2022/12/02 05:45:32;;;;;;;17.80;8.00;;;;;;;-3.05;70.21;100802.48;106509;1306;22328;-62
2022/12/02 05:47:59;;;;;;;34.30;12.70;;;;;;;-3.04;70.06;100803.98;106591;1306;137625;-62
2022/12/02 05:50:30;;;;;;;19.10;9.70;;;;;;;-3.03;70.21;100805.48;106574;1305;22199;-62
2022/12/02 05:52:58;;;;;;;14.00;6.40;;;;;;;-3.02;70.19;100811.77;106443;1306;137496;-62
2022/12/02 05:55:25;;;;;;;37.80;16.40;;;;;;;-3.01;70.20;100816.77;106613;1306;22136;-62
2022/12/02 05:57:54;;;;;;;16.70;7.90;;;;;;;-2.99;70.21;100815.77;106519;1306;22374;-62
2022/12/02 06:00:21;;;;;;;16.70;8.60;;;;;;;-2.99;70.21;100816.44;106345;1307;138024;-62
2022/12/02 06:02:49;;;;;;;14.10;7.20;;;;;;;-2.99;69.88;100821.59;106718;1306;22647;-62
2022/12/02 06:05:20;;;;;;;16.50;9.40;;;;;;;-3.00;70.13;100822.55;106495;1305;139466;-62
2022/12/02 06:07:50;;;;;;;18.80;8.70;;;;;;;-3.00;70.28;100824.34;106518;1306;22318;-62
2022/12/02 06:10:24;;;;;;;15.50;9.80;;;;;;;-3.00;70.24;100828.59;106473;1305;138486;-61
2022/12/02 06:12:52;;;;;;;18.90;10.60;;;;;;;-2.99;70.28;100827.13;106571;1294;22099;-62
2022/12/02 06:15:19;;;;;;;15.10;8.20;;;;;;;-2.99;70.15;100832.13;106086;1306;22583;-62
2022/12/02 06:17:46;;;;;;;18.80;8.80;;;;;;;-2.99;70.09;100833.30;102190;1304;137691;-62
2022/12/02 06:20:27;;;;;;;;;;;;;;;-3.00;70.05;100834.11;102240;1298;25364;-61
2022/12/02 06:22:54;;;;;;;12.20;6.20;;;;;;;-3.04;70.15;100828.66;102278;1298;125017;-60
2022/12/02 06:25:26;;;;;;;16.80;7.90;;;;;;;-2.99;70.18;100836.55;106388;1313;22166;-65
2022/12/02 06:27:55;;;;;;;34.20;14.80;;;;;;;-3.00;70.09;100836.26;106607;1305;22128;-64
2022/12/02 06:30:25;;;;;;;15.60;7.90;;;;;;;-3.00;70.36;100835.88;106448;1303;138479;-63
2022/12/02 06:32:56;;;;;;;19.20;8.30;;;;;;;-2.99;70.18;100834.71;106722;1297;22154;-62
2022/12/02 06:35:28;;;;;;;25.20;16.80;;;;;;;-2.96;70.37;100839.23;106539;1303;140095;-63
2022/12/02 06:37:57;;;;;;;16.80;7.60;;;;;;;-2.94;70.20;100834.80;106604;1302;22126;-63
2022/12/02 06:40:28;;;;;;;13.60;7.10;;;;;;;-2.92;70.02;100833.89;106581;1306;138194;-62
2022/12/02 06:43:00;;;;;;;16.40;8.00;;;;;;;-2.90;69.94;100833.36;106582;1306;22324;-63
2022/12/02 06:45:30;;;;;;;15.20;7.60;;;;;;;-2.85;70.09;100838.26;106609;1296;22149;-63
2022/12/02 06:48:07;;;;;;;74.50;23.30;;;;;;;-2.81;70.16;100840.42;106606;1294;138999;-64
2022/12/02 06:50:39;;;;;;;22.70;10.90;;;;;;;-2.79;70.08;100841.33;106538;1303;22190;-63
2022/12/02 06:53:20;;;;;;;22.30;10.70;;;;;;;-2.78;69.81;100840.46;106430;1306;138703;-63
2022/12/02 06:55:48;;;;;;;23.70;11.40;;;;;;;-2.77;69.88;100839.85;106536;1287;22227;-64
2022/12/02 06:58:31;;;;;;;15.00;8.30;;;;;;;-2.77;69.51;100839.52;106335;1294;140032;-63
2022/12/02 07:01:24;;;;;;;120.40;38.00;;;;;;;-2.77;69.70;100833.62;106545;1291;22158;-63
2022/12/02 07:04:07;;;;;;;27.20;12.30;;;;;;;-2.76;69.60;100836.03;106552;1306;22173;-64
2022/12/02 07:06:44;;;;;;;26.90;12.30;;;;;;;-2.74;69.67;100840.11;106533;1301;138936;-63
2022/12/02 07:09:36;;;;;;;22.30;10.40;;;;;;;-2.73;69.59;100838.25;106619;1296;22839;-63
2022/12/02 07:12:18;;;;;;;50.90;19.60;;;;;;;-2.73;69.40;100841.63;106514;1304;139409;-63
2022/12/02 07:14:55;;;;;;;22.30;10.10;;;;;;;-2.73;69.47;100844.85;106546;1306;22203;-63
2022/12/02 07:17:25;;;;;;;36.50;14.60;;;;;;;-2.73;69.53;100844.96;106492;1305;137828;-63
2022/12/02 07:20:11;;;;;;;27.30;11.50;;;;;;;-2.72;69.34;100841.83;106500;1305;22166;-63
2022/12/02 07:22:49;;;;;;;22.80;10.30;;;;;;;-2.71;69.28;100840.70;106485;1306;138883;-63
2022/12/02 07:25:16;;;;;;;21.50;9.40;;;;;;;-2.69;69.23;100839.98;106311;1303;22650;-62
2022/12/02 07:27:45;;;;;;;43.30;17.80;;;;;;;-2.67;69.40;100839.61;102274;1297;24089;-62
2022/12/02 07:30:31;;;;;;;19.20;10.40;;;;;;;-2.63;69.35;100833.58;106474;1305;140664;-63
2022/12/02 07:32:58;;;;;;;64.00;23.10;;;;;;;-2.62;69.18;100828.70;106673;1297;22222;-63
2022/12/02 07:35:25;;;;;;;20.90;10.10;;;;;;;-2.59;69.33;100833.60;106519;1305;137348;-63
2022/12/02 07:37:51;;;;;;;;;;;;;;;-2.57;69.48;100833.14;106571;1305;22421;-64
2022/12/02 07:40:18;;;;;;;20.80;9.40;;;;;;;-2.54;69.08;100831.43;106458;1305;124069;-64
2022/12/02 07:42:45;;;;;;;;;;;;;;;-2.52;69.30;100831.66;106607;1304;22375;-63
2022/12/02 07:45:13;;;;;;;34.10;16.70;;;;;;;-2.51;69.08;100834.22;106586;1298;23149;-63
2022/12/02 07:47:39;;;;;;;19.20;9.90;;;;;;;-2.49;68.99;100834.64;106607;1303;138635;-62
2022/12/02 07:50:07;;;;;;;16.60;8.50;;;;;;;-2.48;68.76;100840.18;106671;1296;22349;-63
2022/12/02 07:52:34;;;;;;;49.60;24.00;;;;;;;-2.46;68.95;100836.99;106683;1295;138420;-64
2022/12/02 07:55:01;;;;;;;19.30;9.90;;;;;;;-2.45;68.89;100839.23;106705;1303;22895;-64
2022/12/02 07:57:28;;;;;;;21.90;9.90;;;;;;;-2.44;69.07;100837.84;106743;1288;23371;-63
2022/12/02 08:00:00;;;;;;;21.40;9.00;;;;;;;-2.41;69.32;100842.79;106613;1288;139735;-63
2022/12/02 08:02:37;;;;;;;19.30;9.60;;;;;;;-2.42;69.13;100836.30;106708;1288;23007;-64
2022/12/02 08:05:05;;;;;;;21.10;10.30;;;;;;;-2.37;69.12;100844.85;106570;1303;137578;-64
2022/12/02 08:07:32;;;;;;;15.50;9.00;;;;;;;-2.35;69.22;100847.55;106666;1298;22215;-63
2022/12/02 08:09:58;;;;;;;21.00;9.20;;;;;;;-2.34;68.95;100848.56;106613;1288;22921;-63
2022/12/02 08:12:25;;;;;;;20.90;11.30;;;;;;;-2.33;68.58;100846.31;106623;1302;137924;-65
2022/12/02 08:14:52;;;;;;;21.60;9.60;;;;;;;-2.35;68.91;100843.61;106670;1305;22166;-64
2022/12/02 08:17:19;;;;;;;19.00;10.00;;;;;;;-2.35;68.84;100847.55;106652;1297;139873;-63
2022/12/02 08:19:46;;;;;;;16.60;8.70;;;;;;;-2.35;68.78;100849.14;106752;1303;22194;-63
2022/12/02 08:22:13;;;;;;;;;;;;;;;-2.34;68.92;100844.77;106815;1296;23378;-63
2022/12/02 08:24:39;;;;;;;24.90;9.60;;;;;;;-2.32;68.98;100848.50;106659;1295;123906;-63
2022/12/02 08:27:06;;;;;;;29.60;15.10;;;;;;;-2.31;69.05;100845.55;106799;1303;22104;-61
2022/12/02 08:29:33;;;;;;;33.60;12.10;;;;;;;-2.28;69.22;100846.29;106639;1303;138727;-63
2022/12/02 08:32:00;;;;;;;26.70;12.10;;;;;;;-2.24;69.10;100839.58;106729;1278;22612;-63
2022/12/02 08:34:27;;;;;;;;;;;;;;;-2.22;68.93;100838.61;106682;1297;139016;-65
2022/12/02 08:36:53;;;;;;;22.00;11.10;;;;;;;-2.21;68.80;100839.23;106770;1302;22234;-64
2022/12/02 08:39:20;;;;;;;56.70;27.00;;;;;;;-2.19;68.93;100835.67;106769;1302;23253;-63
2022/12/02 08:41:47;;;;;;;19.20;10.80;;;;;;;-2.18;68.85;100834.67;106679;1298;138375;-63
2022/12/02 08:44:13;;;;;;;26.10;14.30;;;;;;;-2.17;68.86;100834.09;106738;1305;22120;-63
2022/12/02 08:46:40;;;;;;;20.10;13.30;;;;;;;-2.16;68.63;100835.00;106625;1303;137848;-62
2022/12/02 08:49:07;;;;;;;;;;;;;;;-2.16;68.83;100833.63;106845;1293;22389;-64
2022/12/02 08:51:34;;;;;;;47.90;17.60;;;;;;;-2.16;68.64;100836.94;106754;1303;23461;-62
2022/12/02 08:54:01;;;;;;;;;;;;;;;-2.16;68.93;100831.45;106631;1303;140297;-63
2022/12/02 08:56:27;;;;;;;33.80;16.90;;;;;;;-2.14;68.97;100834.45;106757;1303;22314;-63
2022/12/02 08:58:54;;;;;;;25.70;12.80;;;;;;;-2.11;69.12;100833.49;106638;1303;139121;-62
2022/12/02 09:01:21;;;;;;;26.80;11.70;;;;;;;-2.07;69.46;100833.52;106738;1302;22184;-63
2022/12/02 09:03:48;;;;;;;;;;;;;;;-2.03;69.38;100829.55;106768;1303;22457;-63
2022/12/02 09:06:14;;;;;;;27.50;10.30;;;;;;;-1.99;69.31;100829.49;106620;1298;124384;-62
2022/12/02 09:08:41;;;;;;;23.20;8.80;;;;;;;-1.95;68.99;100831.15;106718;1303;22188;-64
2022/12/02 09:11:08;;;;;;;;;;;;;;;-1.92;68.89;100827.40;106666;1303;138204;-63
2022/12/02 09:13:35;;;;;;;52.50;19.60;;;;;;;-1.88;68.91;100826.35;106750;1303;22832;-63
2022/12/02 09:16:01;;;;;;;25.20;10.70;;;;;;;-1.85;69.09;100824.59;106751;1288;22230;-62
2022/12/02 09:18:28;;;;;;;;;;;;;;;-1.81;68.77;100823.37;106604;1305;138160;-63
2022/12/02 09:20:55;;;;;;;26.50;12.90;;;;;;;-1.83;68.52;100813.90;106633;1305;22194;-64
2022/12/02 09:23:21;;;;;;;24.30;10.20;;;;;;;-1.76;68.57;100823.05;106598;1303;138344;-63
2022/12/02 09:25:49;;;;;;;18.70;9.00;;;;;;;-1.72;68.44;100822.69;105529;1287;25012;-62
2022/12/02 09:28:16;;;;;;;18.10;9.00;;;;;;;-1.68;68.43;100819.27;102242;1294;139165;-61
2022/12/02 09:30:43;;;;;;;16.50;8.50;;;;;;;-1.63;68.06;100812.56;102366;1289;24499;-62
2022/12/02 09:33:10;;;;;;;;;;;;;;;-1.59;68.03;100815.70;102316;1288;25355;-64
2022/12/02 09:35:36;;;;;;;19.00;7.90;;;;;;;-1.57;67.58;100817.80;102234;1312;123701;-62
2022/12/02 09:38:03;;;;;;;14.00;7.00;;;;;;;-1.54;67.33;100817.04;102431;1291;25142;-63
2022/12/02 09:40:31;;;;;;;14.10;7.10;;;;;;;-1.52;67.47;100819.27;102257;1288;139472;-62
2022/12/02 09:42:59;;;;;;;14.60;7.80;;;;;;;-1.49;67.07;100817.55;102424;1312;22499;-63
2022/12/02 09:45:26;;;;;;;30.20;11.80;;;;;;;-1.46;67.21;100818.02;102355;1294;24203;-62
2022/12/02 09:47:53;;;;;;;30.40;13.40;;;;;;;-1.46;66.80;100815.46;102217;1305;137742;-63
2022/12/02 09:50:20;;;;;;;20.50;7.60;;;;;;;-1.45;66.95;100814.36;102243;1312;22524;-63
2022/12/02 09:52:46;;;;;;;;;;;;;;;-1.47;66.54;100812.96;102252;1298;140055;-64
2022/12/02 09:55:15;;;;;;;22.50;8.20;;;;;;;-1.49;66.76;100812.93;102423;1289;25769;-63
2022/12/02 09:57:44;;;;;;;20.40;9.10;;;;;;;-1.52;66.39;100815.20;102492;1287;22499;-64
2022/12/02 10:00:18;;;;;;;52.30;20.90;;;;;;;-1.53;66.65;100819.23;102270;1297;138669;-64
2022/12/02 10:02:46;;;;;;;31.60;12.50;;;;;;;-1.57;66.85;100813.20;106681;1294;22982;-63
2022/12/02 10:05:15;;;;;;;73.60;24.50;;;;;;;-1.53;67.24;100817.79;106550;1298;139226;-63
2022/12/02 10:07:43;;;;;;;73.40;26.10;;;;;;;-1.52;67.29;100821.11;106659;1304;22880;-63
2022/12/02 10:10:15;;;;;;;32.50;14.50;;;;;;;-1.51;67.28;100819.70;106670;1302;22237;-63
2022/12/02 10:12:42;;;;;;;19.70;10.50;;;;;;;-1.48;67.21;100823.48;106539;1306;22166;-63
2022/12/02 10:15:10;;;;;;;;;;;;;;;-1.44;67.42;100820.27;106695;1303;22421;-63
2022/12/02 10:17:37;;;;;;;26.40;14.70;;;;;;;-1.41;67.18;100820.37;106573;1298;124688;-64
2022/12/02 10:20:05;;;;;;;35.30;14.00;;;;;;;-1.38;67.40;100825.08;106658;1305;22175;-63
2022/12/02 10:25:02;;;;;;;78.30;31.40;;;;;;;-1.32;67.45;100819.88;99642;1316;544782;-63
2022/12/02 10:27:30;;;;;;;84.20;31.20;;;;;;;-1.33;67.34;100817.46;101659;1315;25257;-63
2022/12/02 10:30:19;;;;;;;41.30;17.30;;;;;;;-1.31;67.49;100821.71;105417;1322;136990;-62
2022/12/02 10:33:02;;;;;;;31.80;14.60;;;;;;;-1.32;67.72;100809.14;105786;1315;22124;-62
2022/12/02 10:35:44;;;;;;;27.60;12.90;;;;;;;-1.29;67.73;100812.55;105653;1307;137866;-63
2022/12/02 10:38:30;;;;;;;16.60;9.00;;;;;;;-1.26;67.23;100815.97;105829;1312;191481;-62
2022/12/02 10:41:12;;;;;;;21.60;10.00;;;;;;;-1.26;66.86;100816.53;105974;1313;137593;-62
2022/12/02 10:43:43;;;;;;;15.60;7.30;;;;;;;-1.26;67.05;100813.19;105989;1313;22208;-62
2022/12/02 10:46:13;;;;;;;19.50;10.40;;;;;;;-1.27;66.72;100814.70;106097;1313;22975;-63
2022/12/02 10:48:40;;;;;;;15.80;8.10;;;;;;;-1.29;66.89;100812.23;105955;1306;137112;-62
2022/12/02 10:51:14;;;;;;;17.10;9.70;;;;;;;-1.30;67.02;100811.39;106064;1313;23232;-63
2022/12/02 10:53:41;;;;;;;14.40;9.00;;;;;;;-1.29;67.10;100816.36;105979;1312;136989;-63
2022/12/02 10:56:10;;;;;;;;;;;;;;;-1.28;66.73;100815.20;105913;1313;22356;-63
2022/12/02 10:58:36;;;;;;;17.50;9.40;;;;;;;-1.28;67.09;100813.23;105844;1314;123297;-63
2022/12/02 11:01:07;;;;;;;;;;;;;;;-1.29;67.17;100811.33;106144;1312;22351;-63
2022/12/02 11:03:34;;;;;;;118.10;44.60;;;;;;;-1.29;66.95;100808.84;105867;1313;22144;-63
2022/12/02 11:06:03;;;;;;;30.70;14.50;;;;;;;-1.30;66.82;100809.09;105977;1312;137586;-62
2022/12/02 11:08:30;;;;;;;33.80;20.40;;;;;;;-1.30;67.07;100808.80;105841;1307;22127;-63
2022/12/02 11:11:34;;;;;;;19.10;9.60;;;;;;;-1.31;67.28;100810.79;105856;1315;138033;-62
2022/12/02 11:14:02;;;;;;;17.10;8.40;;;;;;;-1.35;66.92;100801.27;106003;1314;22185;-64
2022/12/02 11:16:40;;;;;;;19.10;9.30;;;;;;;-1.32;67.10;100808.66;105881;1298;137927;-63
2022/12/02 11:19:31;;;;;;;26.10;11.00;;;;;;;-1.33;67.14;100813.52;105972;1314;22155;-63
2022/12/02 11:21:58;;;;;;;19.80;11.00;;;;;;;-1.34;67.10;100810.77;105965;1298;22915;-64
2022/12/02 11:24:26;;;;;;;26.10;12.40;;;;;;;-1.34;67.30;100812.74;105917;1305;138360;-63
2022/12/02 11:26:59;;;;;;;22.50;10.80;;;;;;;-1.34;67.09;100813.25;105981;1315;22150;-64